Time;durP1;ratioP1;P1;durP2;ratioP2;P2;SDS_P1;SDS_P2;PMS_P1;PMS_P2;Temp;Humidity;BMP_temperature;BMP_pressure;BME280_temperature;BME280_humidity;BME280_pressure;Samples;Min_cycle;Max_cycle;Signal;HPM_P1;HPM_P2
2024/02/08 00:02:19;;;;;;;4.97;1.70;;;;;;;24.16;27.40;98512.59;7396895;19;20022;-78
2024/02/08 00:04:47;;;;;;;1.40;0.82;;;;;;;24.16;27.27;98512.59;7393294;19;20010;-78
2024/02/08 00:07:13;;;;;;;6.50;1.77;;;;;;;24.03;27.34;98517.41;7397147;19;20021;-79
2024/02/08 00:09:39;;;;;;;2.22;0.82;;;;;;;24.09;27.62;98520.72;7398277;19;20023;-78
2024/02/08 00:12:05;;;;;;;0.52;0.52;;;;;;;24.06;27.46;98506.97;7397449;19;20066;-78
2024/02/08 00:14:31;;;;;;;0.70;0.70;;;;;;;23.92;28.07;98506.66;7392802;19;20021;-78
2024/02/08 00:16:58;;;;;;;1.70;0.95;;;;;;;24.14;27.47;98501.09;7398076;19;20027;-78
2024/02/08 00:19:24;;;;;;;0.28;0.28;;;;;;;23.89;28.08;98501.38;7391527;19;20037;-79
2024/02/08 00:21:50;;;;;;;4.10;2.47;;;;;;;23.56;27.81;98498.28;7395271;19;20038;-80
2024/02/08 00:24:17;;;;;;;2.53;1.33;;;;;;;23.47;27.79;98492.59;7391288;19;20018;-77
2024/02/08 00:26:43;;;;;;;3.30;2.33;;;;;;;23.29;27.86;98500.47;7396570;19;20022;-76
2024/02/08 00:29:09;;;;;;;3.50;1.08;;;;;;;23.31;28.03;98500.63;7397323;19;20014;-77
2024/02/08 00:31:36;;;;;;;2.08;1.05;;;;;;;23.23;28.42;98500.03;7393615;19;20034;-77
2024/02/08 00:34:02;;;;;;;0.95;0.90;;;;;;;23.14;28.46;98497.91;7394477;19;20047;-77
2024/02/08 00:36:28;;;;;;;5.53;2.17;;;;;;;23.15;28.04;98499.44;7393117;19;20072;-78
2024/02/08 00:38:54;;;;;;;4.35;2.35;;;;;;;23.03;28.59;98492.81;7393423;19;20030;-80
2024/02/08 00:41:24;;;;;;;1.23;0.80;;;;;;;23.02;28.23;98491.31;7391238;19;20018;-77
2024/02/08 00:43:50;;;;;;;4.95;2.22;;;;;;;23.05;28.31;98484.44;7391681;19;20532;-77
2024/02/08 00:46:17;;;;;;;2.30;1.27;;;;;;;22.94;28.35;98468.72;7398338;19;20037;-77
2024/02/08 00:48:43;;;;;;;1.25;1.17;;;;;;;22.96;28.56;98453.94;7393508;19;20014;-79
2024/02/08 00:51:10;;;;;;;3.50;1.45;;;;;;;22.99;28.76;98447.06;7395010;19;20377;-79
2024/02/08 00:53:36;;;;;;;3.13;1.05;;;;;;;23.10;28.22;98438.72;7398677;19;20035;-77
2024/02/08 00:56:02;;;;;;;0.82;0.80;;;;;;;23.37;28.32;98438.59;7394492;19;20095;-79
2024/02/08 00:58:28;;;;;;;26.95;1.83;;;;;;;23.49;27.92;98445.19;7396351;19;20035;-79
2024/02/08 01:00:54;;;;;;;2.90;2.03;;;;;;;23.43;27.96;98439.06;7390191;19;20445;-79
2024/02/08 01:03:24;;;;;;;8.27;1.38;;;;;;;23.51;28.29;98439.66;7394945;19;20022;-76
2024/02/08 01:05:53;;;;;;;7.45;1.50;;;;;;;23.48;27.96;98440.84;7394944;19;20060;-80
2024/02/08 01:08:22;;;;;;;15.30;2.85;;;;;;;23.53;28.24;98436.94;7397410;19;20039;-77
2024/02/08 01:10:48;;;;;;;11.80;1.75;;;;;;;23.55;28.35;98424.97;7397062;19;20035;-77
2024/02/08 01:13:17;;;;;;;2.30;1.33;;;;;;;23.48;28.57;98417.34;7397487;19;20014;-81
2024/02/08 01:15:46;;;;;;;3.25;2.00;;;;;;;23.51;28.33;98414.06;7391587;19;20108;-78
2024/02/08 01:18:13;;;;;;;2.10;1.92;;;;;;;23.45;28.02;98412.88;7392467;19;20030;-77
2024/02/08 01:20:39;;;;;;;8.30;1.58;;;;;;;24.79;27.41;98413.22;7389887;19;20018;-77
2024/02/08 01:23:05;;;;;;;11.95;1.83;;;;;;;24.64;27.06;98402.19;7395387;19;20015;-77
2024/02/08 01:25:32;;;;;;;2.03;1.90;;;;;;;22.70;28.94;98398.03;7394235;19;20092;-77
2024/02/08 01:28:00;;;;;;;3.17;2.88;;;;;;;22.64;28.72;98386.94;7397085;19;20014;-77
2024/02/08 01:30:26;;;;;;;9.18;1.92;;;;;;;22.70;29.01;98381.72;7396571;19;20022;-77
2024/02/08 01:32:53;;;;;;;1.83;1.30;;;;;;;22.98;28.44;98374.56;7394075;19;20014;-77
2024/02/08 01:35:21;;;;;;;2.78;1.02;;;;;;;24.19;27.24;98366.31;7391526;19;20023;-77
2024/02/08 01:37:48;;;;;;;5.18;2.05;;;;;;;24.17;27.42;98357.66;7393093;19;20011;-77
2024/02/08 01:40:17;;;;;;;4.75;2.60;;;;;;;25.71;25.76;98352.31;7391874;19;20022;-79
2024/02/08 01:42:44;;;;;;;12.63;1.40;;;;;;;24.51;26.70;98354.31;7396949;19;20011;-79
2024/02/08 01:45:33;;;;;;;0.60;0.57;;;;;;;24.31;27.10;98347.97;7394260;19;20475;-78
2024/02/08 01:48:09;;;;;;;0.88;0.88;;;;;;;24.15;27.03;98343.28;7395581;19;20513;-78
2024/02/08 01:50:47;;;;;;;3.17;1.25;;;;;;;24.23;27.08;98349.53;7393286;19;20011;-78
2024/02/08 01:53:18;;;;;;;0.68;0.68;;;;;;;24.19;27.59;98349.25;7392898;19;20010;-78
2024/02/08 01:55:52;;;;;;;1.23;1.13;;;;;;;24.24;27.22;98353.84;7387933;19;20109;-78
2024/02/08 01:58:20;;;;;;;5.25;2.42;;;;;;;24.12;27.39;98347.34;7394324;19;20270;-78
2024/02/08 02:00:49;;;;;;;0.75;0.73;;;;;;;24.10;27.84;98356.47;7390966;19;20096;-78
2024/02/08 02:03:19;;;;;;;0.28;0.28;;;;;;;24.03;27.58;98351.69;7391275;19;20010;-80
2024/02/08 02:05:48;;;;;;;3.97;2.25;;;;;;;24.08;28.00;98340.00;7394454;19;20019;-81
2024/02/08 02:08:23;;;;;;;9.30;1.58;;;;;;;23.95;27.95;98336.91;7394958;19;20460;-80
2024/02/08 02:11:18;;;;;;;0.52;0.52;;;;;;;24.06;27.83;98337.00;7396858;19;20019;-80
2024/02/08 02:13:47;;;;;;;2.30;1.40;;;;;;;24.10;27.68;98334.44;7391944;19;20023;-79
2024/02/08 02:16:14;;;;;;;6.80;2.35;;;;;;;24.03;27.68;98326.84;7391089;19;20480;-80
2024/02/08 02:18:40;;;;;;;2.60;0.70;;;;;;;24.06;27.78;98327.75;7392737;19;20355;-80
2024/02/08 02:21:12;;;;;;;2.13;1.73;;;;;;;24.08;27.63;98319.38;7387628;19;20014;-80
2024/02/08 02:23:42;;;;;;;14.38;1.23;;;;;;;24.09;27.67;98323.69;7392311;19;20412;-80
2024/02/08 02:26:11;;;;;;;1.35;1.08;;;;;;;24.16;28.08;98324.84;7391746;19;20516;-79
2024/02/08 02:28:40;;;;;;;1.52;1.42;;;;;;;24.24;27.86;98314.00;7394801;19;20038;-79
2024/02/08 02:31:06;;;;;;;2.65;1.50;;;;;;;24.09;27.98;98309.47;7394268;19;20413;-80
2024/02/08 02:33:36;;;;;;;3.58;1.17;;;;;;;24.22;28.20;98311.03;7392383;19;20023;-78
2024/02/08 02:36:03;;;;;;;3.28;0.82;;;;;;;24.09;27.79;98304.53;7390311;19;20074;-78
2024/02/08 02:38:29;;;;;;;1.52;1.42;;;;;;;24.16;27.74;98300.00;7388673;19;20078;-78
2024/02/08 02:40:55;;;;;;;2.17;1.60;;;;;;;24.15;28.04;98292.06;7388331;19;20056;-78
2024/02/08 02:43:26;;;;;;;3.40;2.47;;;;;;;24.13;28.18;98291.94;7391631;19;20015;-79
2024/02/08 02:45:55;;;;;;;2.88;1.65;;;;;;;23.91;28.37;98277.63;7391464;19;20014;-78
2024/02/08 02:48:21;;;;;;;7.90;1.58;;;;;;;24.70;27.44;98277.31;7387106;19;20472;-78
2024/02/08 02:50:51;;;;;;;0.75;0.50;;;;;;;23.88;28.10;98276.03;7391226;19;20362;-78
2024/02/08 02:53:18;;;;;;;14.63;2.65;;;;;;;24.54;28.03;98268.44;7394094;19;20018;-78
2024/02/08 02:55:44;;;;;;;13.52;2.13;;;;;;;25.21;27.25;98273.56;7388430;19;20021;-78
2024/02/08 02:58:12;;;;;;;2.47;1.10;;;;;;;24.67;27.46;98261.44;7388541;19;20047;-78
2024/02/08 03:00:38;;;;;;;2.95;1.60;;;;;;;24.64;27.66;98259.81;7389725;19;20022;-78
2024/02/08 03:03:12;;;;;;;6.55;1.27;;;;;;;24.67;27.67;98258.59;7390834;19;20362;-78
2024/02/08 03:05:43;;;;;;;7.32;1.27;;;;;;;24.68;27.87;98260.09;7387419;19;20018;-78
2024/02/08 03:08:10;;;;;;;12.85;1.50;;;;;;;24.71;28.00;98250.34;7390106;19;20034;-78
2024/02/08 03:10:42;;;;;;;1.55;0.95;;;;;;;24.79;28.33;98242.34;7392611;19;20017;-79
2024/02/08 03:13:10;;;;;;;1.63;1.38;;;;;;;24.77;27.91;98230.81;7388106;19;20021;-79
2024/02/08 03:15:39;;;;;;;0.88;0.88;;;;;;;24.74;27.92;98209.22;7394849;19;20535;-78
2024/02/08 03:18:07;;;;;;;1.35;1.25;;;;;;;24.73;28.32;98199.94;7390683;19;20014;-78
2024/02/08 03:20:35;;;;;;;5.68;1.67;;;;;;;24.81;28.00;98203.34;7388861;19;20026;-79
2024/02/08 03:23:02;;;;;;;0.63;0.52;;;;;;;24.87;28.02;98200.13;7388213;19;20525;-78
2024/02/08 03:25:30;;;;;;;0.88;0.68;;;;;;;24.79;28.58;98197.53;7388027;19;20042;-78
2024/02/08 03:27:57;;;;;;;0.60;0.60;;;;;;;24.56;28.58;98208.06;7389507;19;20506;-79
2024/02/08 03:30:23;;;;;;;0.50;0.50;;;;;;;24.81;28.68;98194.06;7390307;19;20106;-78
2024/02/08 03:32:53;;;;;;;1.50;0.88;;;;;;;24.74;28.68;98184.38;7388669;19;20023;-78
2024/02/08 03:35:25;;;;;;;4.47;1.30;;;;;;;24.82;28.63;98184.16;7386980;19;20033;-78
2024/02/08 03:37:55;;;;;;;4.47;2.05;;;;;;;24.42;29.05;98181.50;7389723;19;20509;-79
2024/02/08 03:40:22;;;;;;;9.98;3.88;;;;;;;24.37;29.39;98174.03;7389589;19;20364;-78
2024/02/08 03:42:49;;;;;;;0.75;0.75;;;;;;;23.42;29.92;98161.19;7387870;19;20026;-78
2024/02/08 03:45:18;;;;;;;3.60;2.30;;;;;;;23.28;30.17;98158.09;7389834;19;20018;-78
2024/02/08 03:47:47;;;;;;;1.15;1.10;;;;;;;23.29;30.17;98151.03;7388779;19;20044;-78
2024/02/08 03:50:14;;;;;;;3.63;1.83;;;;;;;23.10;30.32;98146.19;7391361;19;20011;-78
2024/02/08 03:52:40;;;;;;;2.15;1.95;;;;;;;23.51;30.16;98155.47;7390289;19;20025;-78
2024/02/08 03:55:08;;;;;;;3.20;1.50;;;;;;;22.94;31.20;98149.97;7391388;19;20022;-78
2024/02/08 03:57:37;;;;;;;3.78;1.67;;;;;;;22.90;30.80;98149.69;7389393;19;20018;-78
2024/02/08 04:00:04;;;;;;;8.25;3.13;;;;;;;23.80;30.40;98147.50;7389037;19;20017;-78
2024/02/08 04:02:43;;;;;;;1.52;0.98;;;;;;;23.80;30.44;98147.50;7388961;19;20104;-79
2024/02/08 04:05:19;;;;;;;2.40;2.05;;;;;;;23.75;30.35;98136.47;7388156;19;20086;-78
2024/02/08 04:07:59;;;;;;;1.20;1.02;;;;;;;23.98;30.08;98139.44;7389891;19;20015;-79
2024/02/08 04:54:42;;;;;;;1.15;0.88;;;;;;;27.58;26.67;98032.56;7391375;19;20015;-78
2024/02/08 04:57:09;;;;;;;1.23;0.40;;;;;;;27.43;27.01;98032.47;7390323;19;20033;-78
2024/02/08 04:59:42;;;;;;;1.23;0.80;;;;;;;27.48;26.97;98025.59;7396279;19;20022;-79
2024/02/08 05:02:09;;;;;;;9.88;2.15;;;;;;;27.65;26.77;98016.44;7392369;19;20018;-79
2024/02/08 05:04:35;;;;;;;0.47;0.47;;;;;;;28.05;26.50;98009.88;7391335;19;20046;-79
2024/02/08 05:07:06;;;;;;;5.75;1.30;;;;;;;26.94;27.34;98009.16;7393610;19;20493;-79
2024/02/08 05:09:33;;;;;;;2.53;1.23;;;;;;;26.89;27.08;98002.50;7397848;19;20271;-78
2024/02/08 05:11:59;;;;;;;7.13;2.33;;;;;;;26.83;27.44;97999.28;7393445;19;20039;-78
2024/02/08 05:14:26;;;;;;;0.45;0.45;;;;;;;27.01;27.06;97991.69;7391925;19;20022;-79
2024/02/08 05:16:55;;;;;;;10.40;3.67;;;;;;;26.58;27.21;97985.06;7393913;19;20018;-79
2024/02/08 05:19:25;;;;;;;2.05;0.88;;;;;;;26.75;27.15;97978.88;7393808;19;20046;-78
2024/02/08 05:21:54;;;;;;;4.82;1.48;;;;;;;26.79;27.24;97979.09;7392217;19;20050;-79
2024/02/08 05:24:20;;;;;;;0.70;0.70;;;;;;;26.93;27.06;97973.38;7390005;19;20014;-79
2024/02/08 05:26:46;;;;;;;8.20;1.92;;;;;;;26.84;27.14;97957.94;7392967;19;20015;-79
2024/02/08 05:29:19;;;;;;;1.55;1.13;;;;;;;27.03;27.00;97954.66;7392980;19;20111;-79
2024/02/08 05:31:47;;;;;;;11.27;1.02;;;;;;;27.54;26.75;97945.81;7395358;19;20048;-78
2024/02/08 05:34:15;;;;;;;3.05;1.40;;;;;;;28.14;26.41;97948.78;7389651;19;20023;-78
2024/02/08 05:36:42;;;;;;;1.63;0.40;;;;;;;27.91;26.01;97931.91;7390397;19;20023;-79
2024/02/08 05:39:10;;;;;;;1.85;1.00;;;;;;;26.33;27.61;97933.75;7392743;19;20021;-79
2024/02/08 05:41:36;;;;;;;1.92;1.27;;;;;;;26.11;27.63;97923.97;7391405;19;20590;-79
2024/02/08 05:44:05;;;;;;;0.35;0.30;;;;;;;26.50;27.64;97924.69;7394247;19;20078;-79
2024/02/08 05:46:46;;;;;;;6.80;1.13;;;;;;;27.90;26.23;97910.38;7397652;19;20014;-79
2024/02/08 05:49:13;;;;;;;0.73;0.73;;;;;;;28.83;25.42;97911.81;7392845;19;20015;-79
2024/02/08 05:51:51;;;;;;;1.58;1.33;;;;;;;29.07;25.66;97901.41;7391198;19;20492;-79
2024/02/08 05:54:31;;;;;;;0.80;0.60;;;;;;;29.36;25.27;97889.78;7391986;19;20116;-79
2024/02/08 05:57:03;;;;;;;0.80;0.70;;;;;;;29.29;25.16;97884.44;7389501;19;20438;-79
2024/02/08 05:59:31;;;;;;;2.83;1.55;;;;;;;29.22;25.12;97880.59;7391193;19;20015;-80
2024/02/08 06:02:05;;;;;;;0.45;0.45;;;;;;;29.46;25.04;97887.34;7390299;19;20022;-80
2024/02/08 06:04:34;;;;;;;1.25;1.10;;;;;;;29.65;25.15;97883.81;7390111;19;20014;-80
2024/02/08 06:07:05;;;;;;;2.75;0.52;;;;;;;29.93;24.97;97884.97;7391113;19;20025;-81
2024/02/08 06:12:42;;;;;;;0.50;0.50;;;;;;;30.07;24.66;97867.56;7391603;19;20022;-83
2024/02/08 06:15:21;;;;;;;1.40;0.85;;;;;;;30.24;24.85;97860.28;7391535;19;20367;-84
2024/02/08 06:17:57;;;;;;;1.10;0.73;;;;;;;30.10;24.63;97854.03;7390757;19;20047;-81
2024/02/08 06:20:33;;;;;;;2.80;1.08;;;;;;;30.01;24.30;97846.50;7391981;19;20018;-80
2024/02/08 06:23:22;;;;;;;0.85;0.85;;;;;;;30.38;24.43;97840.75;7392059;19;20034;-80
2024/02/08 06:28:46;;;;;;;0.63;0.60;;;;;;;29.50;24.84;97815.78;7392069;19;20014;-81
2024/02/08 06:31:15;;;;;;;1.40;0.50;;;;;;;28.44;25.33;97812.72;7390806;19;20046;-81
2024/02/08 06:34:09;;;;;;;0.50;0.50;;;;;;;27.60;26.04;97811.69;7389942;19;20351;-80
2024/02/08 06:36:33;;;;;;;0.80;0.80;;;;;;;27.49;25.96;97812.56;7392487;19;20007;-80
2024/02/08 06:39:20;;;;;;;0.65;0.65;;;;;;;27.48;26.11;97816.84;7390624;19;20020;-79
2024/02/08 06:41:53;;;;;;;1.80;1.70;;;;;;;27.18;26.83;97812.47;7390437;19;20018;-79
2024/02/08 07:39:35;;;;;;;0.82;0.50;;;;;;;22.65;30.72;97738.59;7388201;19;20792;-80
2024/02/08 07:42:12;;;;;;;1.50;1.27;;;;;;;22.79;31.14;97724.56;7387596;19;20014;-80
2024/02/08 07:44:39;;;;;;;25.50;1.25;;;;;;;22.14;31.07;97725.94;7386839;19;20095;-80
2024/02/08 07:47:05;;;;;;;0.52;0.30;;;;;;;21.78;31.78;97723.44;7391879;19;20055;-80
2024/02/08 07:49:44;;;;;;;1.55;1.45;;;;;;;22.46;31.09;97721.66;7390078;19;20015;-80
2024/02/08 07:52:19;;;;;;;0.60;0.30;;;;;;;23.28;30.68;97701.47;7389764;19;20074;-80
2024/02/08 07:54:47;;;;;;;0.20;0.20;;;;;;;22.31;31.17;97691.63;7386808;19;20384;-80
2024/02/08 07:57:13;;;;;;;1.88;0.30;;;;;;;23.57;30.37;97692.63;7386235;19;20326;-80
2024/02/08 07:59:42;;;;;;;0.73;0.40;;;;;;;23.82;29.96;97680.66;7387075;19;20035;-79
2024/02/08 08:02:12;;;;;;;0.43;0.38;;;;;;;23.14;30.78;97679.97;7387049;19;20022;-79
2024/02/08 08:04:51;;;;;;;0.60;0.40;;;;;;;22.05;31.53;97683.47;7386829;19;20014;-79
2024/02/08 08:07:23;;;;;;;0.32;0.32;;;;;;;22.63;31.02;97683.78;7389625;19;20019;-80
2024/02/08 08:09:59;;;;;;;0.57;0.50;;;;;;;22.82;30.58;97672.25;7389201;19;20341;-80
2024/02/08 08:12:28;;;;;;;0.63;0.47;;;;;;;22.92;30.96;97661.53;7394133;19;20035;-80
2024/02/08 08:19:54;;;;;;;1.98;1.38;;;;;;;23.23;30.73;97662.09;7391463;19;20437;-80
2024/02/08 08:28:09;;;;;;;1.05;0.98;;;;;;;22.67;31.14;97644.31;7396638;19;20045;-80
2024/02/08 08:30:38;;;;;;;22.90;1.20;;;;;;;22.69;31.33;97641.63;7396050;19;20015;-80
2024/02/08 08:35:45;;;;;;;0.55;0.50;;;;;;;21.36;32.20;97632.69;7397325;19;20020;-80
2024/02/08 08:40:48;;;;;;;0.30;0.30;;;;;;;20.79;32.64;97628.72;7395173;19;20022;-80
2024/02/08 08:43:19;;;;;;;0.15;0.15;;;;;;;20.89;32.69;97637.94;7392978;19;20042;-80
2024/02/08 08:45:50;;;;;;;0.30;0.30;;;;;;;20.86;33.04;97627.06;7395055;19;20398;-81
2024/02/08 08:48:18;;;;;;;1.27;0.95;;;;;;;21.43;32.44;97624.03;7392949;19;20010;-81
2024/02/08 08:50:50;;;;;;;4.50;0.98;;;;;;;21.22;32.54;97614.75;7394798;19;20365;-82
2024/02/08 08:53:19;;;;;;;0.73;0.73;;;;;;;20.98;32.72;97608.88;7392686;19;20050;-81
2024/02/08 08:55:50;;;;;;;0.75;0.73;;;;;;;20.92;32.71;97602.03;7392653;19;20031;-80
2024/02/08 08:58:17;;;;;;;0.50;0.50;;;;;;;20.93;33.02;97597.84;7393124;19;20011;-80
2024/02/08 09:00:58;;;;;;;0.43;0.43;;;;;;;20.84;33.37;97596.53;7393368;19;20523;-80
2024/02/08 09:03:28;;;;;;;1.10;1.05;;;;;;;20.81;33.49;97586.41;7394337;19;20039;-80
2024/02/08 09:05:57;;;;;;;0.50;0.50;;;;;;;20.83;33.46;97578.09;7393344;19;20030;-80
2024/02/08 09:08:34;;;;;;;0.98;0.98;;;;;;;21.26;33.11;97578.22;7393025;19;20031;-80
2024/02/08 09:11:03;;;;;;;1.00;0.63;;;;;;;22.94;31.42;97565.13;7397424;19;20006;-80
2024/02/08 09:13:30;;;;;;;0.82;0.63;;;;;;;23.17;31.15;97553.81;7391191;19;20525;-80
2024/02/08 09:16:29;;;;;;;0.40;0.40;;;;;;;23.17;31.21;97542.44;7392331;19;20046;-81
2024/02/08 09:19:04;;;;;;;2.53;0.73;;;;;;;23.80;30.43;97530.59;7390666;19;20487;-82
2024/02/08 09:21:35;;;;;;;0.63;0.43;;;;;;;24.50;29.49;97513.19;7394637;19;20031;-83
2024/02/08 09:24:03;;;;;;;0.30;0.30;;;;;;;23.91;30.16;97518.44;7391635;19;20019;-84
2024/02/08 09:26:56;;;;;;;0.63;0.63;;;;;;;23.31;30.49;97506.34;7392313;19;20015;-84
2024/02/08 09:29:26;;;;;;;0.30;0.30;;;;;;;23.13;30.84;97502.44;7392266;19;20022;-84
2024/02/08 09:32:00;;;;;;;0.20;0.20;;;;;;;21.91;31.62;97493.38;7390593;19;20027;-84
2024/02/08 09:34:37;;;;;;;0.35;0.28;;;;;;;21.53;32.67;97499.34;7390576;19;20029;-84
2024/02/08 09:37:06;;;;;;;0.28;0.28;;;;;;;22.66;31.38;97489.59;7391807;19;20017;-84
2024/02/08 09:42:29;;;;;;;0.50;0.30;;;;;;;23.74;30.53;97479.06;7390970;19;20038;-85
2024/02/08 09:45:13;;;;;;;0.80;0.52;;;;;;;24.08;30.10;97466.81;7391657;19;20014;-84
2024/02/08 09:47:51;;;;;;;0.28;0.28;;;;;;;23.91;30.13;97475.78;7393822;19;20031;-85
2024/02/08 09:50:31;;;;;;;0.40;0.40;;;;;;;22.07;31.84;97465.34;7392290;19;20014;-84
2024/02/08 09:53:07;;;;;;;0.30;0.30;;;;;;;21.12;32.70;97451.34;7393562;19;20042;-85
2024/02/08 09:55:33;;;;;;;0.30;0.30;;;;;;;20.74;33.16;97445.91;7393673;19;20382;-81
2024/02/08 09:58:04;;;;;;;0.50;0.47;;;;;;;20.71;33.37;97440.69;7392129;19;20014;-81
2024/02/08 10:00:44;;;;;;;0.90;0.90;;;;;;;20.61;33.70;97426.63;7393143;19;20014;-81
2024/02/08 10:03:31;;;;;;;0.35;0.35;;;;;;;20.81;33.34;97402.53;7392140;19;20026;-81
2024/02/08 10:06:00;;;;;;;0.20;0.20;;;;;;;20.79;33.47;97391.06;7395510;19;20074;-81
2024/02/08 10:08:31;;;;;;;1.25;0.52;;;;;;;20.80;33.28;97375.59;7389542;19;20520;-83
2024/02/08 10:11:23;;;;;;;;;;;;;;;21.75;32.42;97373.28;7396212;19;20011;-79
2024/02/08 10:14:01;;;;;;;0.10;0.10;;;;;;;21.62;32.00;97382.38;7391664;19;19914;-79
2024/02/08 10:16:47;;;;;;;0.45;0.40;;;;;;;21.58;32.11;97373.63;7391180;19;20011;-79
2024/02/08 10:22:02;;;;;;;0.15;0.15;;;;;;;20.91;32.63;97345.88;7388860;19;20026;-80
2024/02/08 10:24:44;;;;;;;0.50;0.50;;;;;;;20.47;33.59;97340.81;7388756;19;20006;-80
2024/02/08 10:27:21;;;;;;;0.60;0.57;;;;;;;20.31;33.44;97331.25;7389423;19;20018;-80
2024/02/08 10:29:50;;;;;;;0.50;0.47;;;;;;;20.33;33.60;97320.09;7389670;19;20014;-81
2024/02/08 10:32:20;;;;;;;0.40;0.40;;;;;;;20.21;33.71;97313.59;7390249;19;20018;-81
2024/02/08 10:34:52;;;;;;;0.25;0.25;;;;;;;20.24;33.69;97315.22;7386393;19;20370;-81
2024/02/08 10:40:28;;;;;;;0.28;0.28;;;;;;;21.18;32.64;97314.41;7390744;19;20015;-81
2024/02/08 10:42:58;;;;;;;0.20;0.20;;;;;;;21.51;32.58;97315.09;7388498;19;20082;-82
2024/02/08 10:45:25;;;;;;;0.28;0.28;;;;;;;21.50;32.29;97313.63;7390933;19;20409;-81
2024/02/08 10:47:59;;;;;;;0.30;0.30;;;;;;;21.64;32.06;97301.09;7390155;19;20026;-83
2024/02/08 10:50:28;;;;;;;0.20;0.20;;;;;;;20.58;32.89;97308.28;7391100;19;20034;-82
2024/02/08 10:53:00;;;;;;;0.38;0.38;;;;;;;20.96;32.69;97308.03;7390364;19;20019;-83
2024/02/08 10:55:36;;;;;;;1.38;0.30;;;;;;;18.68;35.08;97322.34;7387216;19;20480;-82
2024/02/08 11:03:14;;;;;;;0.45;0.45;;;;;;;21.10;32.45;97306.88;7390010;19;20025;-82
2024/02/08 11:08:24;;;;;;;0.20;0.20;;;;;;;21.65;32.13;97287.69;7389343;19;20019;-84
2024/02/08 11:10:58;;;;;;;0.55;0.47;;;;;;;21.43;32.57;97297.63;7392566;19;20468;-84
2024/02/08 11:13:29;;;;;;;0.20;0.20;;;;;;;21.57;32.06;97301.34;7388887;19;20019;-84
2024/02/08 11:16:11;;;;;;;0.20;0.20;;;;;;;22.90;30.67;97292.41;7391164;19;20480;-85
2024/02/08 11:18:38;;;;;;;0.20;0.20;;;;;;;23.42;30.31;97301.06;7390642;19;20023;-85
2024/02/08 11:21:05;;;;;;;0.80;0.40;;;;;;;22.01;31.76;97292.03;7388656;19;20488;-84
2024/02/08 11:23:32;;;;;;;0.20;0.20;;;;;;;21.78;31.75;97301.25;7392051;19;20086;-84
2024/02/08 11:26:08;;;;;;;0.28;0.28;;;;;;;21.69;32.20;97302.09;7386774;19;20469;-96
2024/02/08 11:28:48;;;;;;;0.15;0.15;;;;;;;24.15;29.84;97288.72;7390423;19;20042;-94
2024/02/08 11:31:17;;;;;;;0.40;0.40;;;;;;;24.05;29.96;97283.25;7387162;19;20019;-89
2024/02/08 11:33:44;;;;;;;0.50;0.50;;;;;;;24.24;29.98;97261.44;7384869;19;20373;-84
2024/02/08 11:36:12;;;;;;;1.40;0.95;;;;;;;24.33;29.68;97246.25;7385893;19;20022;-85
2024/02/08 11:38:53;;;;;;;0.17;0.17;;;;;;;24.36;29.81;97234.38;7385183;19;20569;-86
2024/02/08 11:41:25;;;;;;;0.20;0.20;;;;;;;22.84;30.85;97226.78;7389173;19;20477;-87
2024/02/08 11:44:05;;;;;;;0.32;0.32;;;;;;;22.35;31.78;97221.09;7388861;19;20497;-86
2024/02/08 11:46:45;;;;;;;0.65;0.40;;;;;;;22.40;31.76;97224.91;7397468;19;20040;-86
2024/02/08 11:49:14;;;;;;;0.20;0.20;;;;;;;22.25;31.75;97225.44;7396544;19;20527;-87
2024/02/08 11:51:48;;;;;;;0.30;0.30;;;;;;;22.08;32.16;97218.09;7396270;19;20021;-86
2024/02/08 11:54:30;;;;;;;0.22;0.22;;;;;;;22.32;31.91;97213.13;7395245;19;20026;-86
2024/02/08 11:56:58;;;;;;;0.30;0.30;;;;;;;22.03;31.65;97213.53;7392849;19;20030;-86
2024/02/08 11:59:25;;;;;;;0.75;0.40;;;;;;;22.10;31.59;97192.69;7394592;19;20033;-87
2024/02/08 12:01:53;;;;;;;0.20;0.20;;;;;;;22.03;31.70;97188.03;7393125;19;20014;-86
2024/02/08 12:04:22;;;;;;;0.30;0.30;;;;;;;22.26;31.58;97173.06;7393350;19;20018;-87
2024/02/08 12:06:49;;;;;;;0.22;0.22;;;;;;;24.17;29.97;97160.13;7398676;19;20014;-86
2024/02/08 12:09:31;;;;;;;0.30;0.30;;;;;;;23.10;30.89;97174.31;7398437;19;20014;-86
2024/02/08 12:11:58;;;;;;;0.15;0.15;;;;;;;23.28;30.42;97156.16;7397060;19;20026;-85
2024/02/08 12:14:26;;;;;;;0.10;0.10;;;;;;;23.21;30.28;97150.78;7394180;19;20348;-88
2024/02/08 12:16:57;;;;;;;0.30;0.30;;;;;;;23.40;30.57;97144.00;7397327;19;20014;-89
2024/02/08 12:19:24;;;;;;;0.10;0.10;;;;;;;23.98;29.74;97138.50;7398370;19;20015;-90
2024/02/08 12:21:57;;;;;;;0.20;0.20;;;;;;;23.27;30.78;97153.94;7395690;19;20039;-93
2024/02/08 12:24:24;;;;;;;0.50;0.50;;;;;;;23.20;30.74;97158.56;7394348;19;20010;-90
2024/02/08 12:27:05;;;;;;;0.20;0.20;;;;;;;23.24;30.88;97160.88;7399203;19;20345;-88
2024/02/08 12:29:37;;;;;;;0.47;0.47;;;;;;;23.33;30.50;97137.25;7398129;19;20014;-92
2024/02/08 12:32:05;;;;;;;0.10;0.10;;;;;;;23.35;30.44;97151.56;7401613;19;20018;-92
2024/02/08 12:34:32;;;;;;;0.30;0.30;;;;;;;23.33;30.64;97128.72;7394231;19;20477;-93
2024/02/08 12:37:04;;;;;;;0.47;0.40;;;;;;;23.48;30.72;97133.78;7394654;19;20018;-92
2024/02/08 12:39:34;;;;;;;0.43;0.43;;;;;;;23.45;30.71;97129.38;7394995;19;20014;-92
2024/02/08 12:42:01;;;;;;;0.30;0.30;;;;;;;23.65;30.10;97119.06;7393938;19;20056;-92
2024/02/08 12:44:27;;;;;;;0.28;0.28;;;;;;;23.52;30.02;97114.13;7394937;19;20010;-92
2024/02/08 12:46:57;;;;;;;0.20;0.20;;;;;;;23.55;30.48;97110.03;7399921;19;20472;-91
2024/02/08 12:49:24;;;;;;;0.20;0.20;;;;;;;23.58;30.59;97108.03;7395799;19;20018;-93
2024/02/08 12:51:56;;;;;;;0.90;0.90;;;;;;;23.58;30.71;97099.50;7396442;19;20022;-92
2024/02/08 12:54:25;;;;;;;0.22;0.22;;;;;;;23.70;30.42;97092.31;7392700;19;20018;-92
2024/02/08 12:57:07;;;;;;;0.30;0.30;;;;;;;23.89;30.23;97082.59;7392779;19;20006;-92
2024/02/08 12:59:35;;;;;;;0.68;0.40;;;;;;;24.82;29.02;97073.69;7393157;19;20412;-91
2024/02/08 13:02:08;;;;;;;0.20;0.20;;;;;;;24.50;29.59;97069.28;7394738;19;20015;-91
2024/02/08 13:04:43;;;;;;;0.60;0.60;;;;;;;23.99;30.08;97077.44;7396098;19;20014;-91
2024/02/08 13:07:14;;;;;;;0.13;0.13;;;;;;;24.25;29.91;97058.13;7397458;19;20025;-90
2024/02/08 13:09:40;;;;;;;0.10;0.10;;;;;;;24.30;29.72;97056.94;7398240;19;20039;-90
2024/02/08 13:12:22;;;;;;;0.10;0.10;;;;;;;23.20;30.46;97052.75;7396071;19;20110;-92
2024/02/08 13:14:49;;;;;;;0.30;0.30;;;;;;;23.16;30.98;97064.63;7393763;19;20014;-94
2024/02/08 13:17:19;;;;;;;0.20;0.20;;;;;;;23.22;30.52;97044.31;7394793;19;20013;-92
2024/02/08 13:19:55;;;;;;;0.40;0.40;;;;;;;23.23;30.89;97065.69;7393469;19;20442;-93
2024/02/08 13:22:24;;;;;;;0.40;0.40;;;;;;;23.76;30.42;97050.00;7393502;19;20037;-82
2024/02/08 13:24:54;;;;;;;0.20;0.20;;;;;;;24.01;30.02;97052.69;7393733;19;20714;-87
2024/02/08 13:27:29;;;;;;;0.50;0.50;;;;;;;24.08;30.19;97057.31;7396937;19;20018;-91
2024/02/08 13:30:00;;;;;;;0.13;0.13;;;;;;;24.57;29.52;97051.13;7395777;19;20010;-91
2024/02/08 13:32:30;;;;;;;0.30;0.28;;;;;;;25.12;28.98;97049.44;7395101;19;20465;-94
2024/02/08 13:35:00;;;;;;;0.35;0.35;;;;;;;24.43;29.96;97045.50;7392526;19;20022;-91
2024/02/08 13:37:28;;;;;;;1.10;0.35;;;;;;;24.12;29.71;97050.38;7395886;19;20029;-96
2024/02/08 13:40:05;;;;;;;0.13;0.13;;;;;;;23.83;30.09;97048.94;7391541;19;20014;-90
2024/02/08 13:42:32;;;;;;;0.15;0.15;;;;;;;23.74;29.93;97044.22;7395965;19;20015;-93
2024/02/08 13:45:01;;;;;;;0.52;0.52;;;;;;;23.66;30.31;97035.28;7392139;19;20017;-91
2024/02/08 13:47:29;;;;;;;0.80;0.50;;;;;;;23.87;29.59;97037.03;7394772;19;20011;-91
2024/02/08 13:49:55;;;;;;;0.10;0.10;;;;;;;24.46;29.37;97032.09;7398172;19;20015;-92
2024/02/08 13:52:25;;;;;;;0.10;0.10;;;;;;;25.25;28.70;97030.78;7394696;19;20369;-93
2024/02/08 13:54:54;;;;;;;1.00;0.60;;;;;;;25.63;28.44;97031.75;7394171;19;20024;-93
2024/02/08 13:57:21;;;;;;;0.55;0.55;;;;;;;25.82;28.48;97033.97;7391609;19;20098;-91
2024/02/08 13:59:51;;;;;;;0.10;0.10;;;;;;;26.00;28.31;97029.78;7392466;19;20470;-90
2024/02/08 14:02:19;;;;;;;0.20;0.20;;;;;;;27.28;27.33;97015.50;7395125;19;20052;-88
2024/02/08 14:04:55;;;;;;;0.60;0.30;;;;;;;26.59;27.33;97015.75;7391089;19;20039;-90
2024/02/08 14:07:31;;;;;;;0.40;0.22;;;;;;;26.22;27.60;97010.00;7394126;19;20468;-91
2024/02/08 14:10:01;;;;;;;0.10;0.10;;;;;;;26.46;27.83;97010.97;7396328;19;20006;-90